Thursday, November 23, 2017, 7:15 PM EST
Back to Local

KVAY, Mt Holly South Jersey Rgnl

Location: Medford, NJ, United States Lat: 39.933
Local Time: 7:15 PM EST ( 0:15 GMT) Lon: -74.833
Time Zone: US/Eastern Elev: 52 ft

Show me the last for .
Show Coded

Time T Td Feel RH Dir Speed Gust Alt SLP Vis Weather Sky Remarks
2017-11-23 18:54 29 22 - 74 - Calm - 30.05 30.05 10 CLR 6-hr Min Temp (7pm): 28.9°F
6-hr Max Temp (7pm): 41.0°F
2017-11-23 17:54 30 21 - 68 - Calm - 30.05 30.05 10 CLR None
2017-11-23 16:54 35 21 - 56 - Calm - 30.04 30.04 10 CLR None
2017-11-23 15:54 40 19 35 42 260° 7 - 30.05 30.05 10 CLR None
2017-11-23 14:54 40 19 36 42 290° 6 - 30.06 30.06 10 CLR None
2017-11-23 13:54 40 20 34 44 260° 8 - 30.06 30.06 10 CLR None
2017-11-23 12:54 39 20 35 45 290° 6 - 30.08 30.08 10 CLR 6-hr Min Temp (1pm): 28.9°F
6-hr Max Temp (1pm): 39.9°F
2017-11-23 11:54 37 20 31 49 310° 8 - 30.10 30.10 10 CLR None
2017-11-23 10:54 36 21 29 54 340° 9 - 30.13 30.13 10 CLR None
2017-11-23 09:54 35 20 27 53 360° 10 - 30.14 30.14 10 CLR None
2017-11-23 08:54 33 19 27 55 Variable 7 - 30.16 30.16 10 CLR None
2017-11-23 07:54 30 19 24 63 310° 6 - 30.16 30.16 10 CLR None
2017-11-23 06:54 29 19 25 66 310° 3 - 30.14 30.14 10 CLR 24-hr Precip Total (7am): 0.11"
6-hr Min Temp (7am): 28.9°F
6-hr Max Temp (7am): 34.0°F
2017-11-23 05:54 30 19 - 63 - Calm - 30.14 30.14 10 CLR None
2017-11-23 04:54 30 19 - 63 - Calm - 30.13 30.13 10 CLR None
2017-11-23 03:54 30 20 23 65 Variable 7 - 30.12 30.12 10 CLR None
2017-11-23 02:54 33 20 26 58 330° 8 - 30.13 30.13 10 CLR None
2017-11-23 01:54 33 21 29 60 320° 5 - 30.12 30.12 10 CLR None
2017-11-23 00:54 34 21 25 58 340° 12 - 30.11 30.11 10 CLR 6-hr Min Temp (1am): 30.0°F
6-hr Max Temp (1am): 43.0°F
2017-11-22 23:54 32 24 25 72 320° 8 - 30.13 30.12 10 CLR 24-hr Min Temp (12am): 30.0°F
24-hr Max Temp (12am): 55.9°F
2017-11-22 22:54 33 25 30 71 20° 3 - 30.14 30.13 10 SCT042 None
2017-11-22 21:54 37 24 32 59 330° 6 - 30.12 30.12 10 FEW042 None
2017-11-22 20:54 39 24 30 54 320° 12 18 30.10 30.10 10 FEW043 None
2017-11-22 19:54 41 25 32 52 340° 13 21 30.10 30.09 10 OVC045 None

Support USWX by starting your Amazon purchase here.